Terminal Aerodrome Forecast
Issued by NWS Bismarck, ND

Home | Current Version | Previous Version | Graphics & Text | Print | Product List | Glossary On
Versions: 1 2 3 4 5 6 7 8 9 10 11 12 13 14 15 16
000
FTUS43 KBIS 190800 AAA
TAFBIS
TAF AMD
KBIS 190806Z 1908/2006 32014G20KT P6SM SCT120
     FM191000 29011KT P6SM SCT250
     FM191300 27016KT P6SM FEW250
     FM191600 28020G25KT P6SM SKC
     FM200100 27005KT P6SM SKC=

USA.gov is the U.S. government's official web portal to all federal, state and local government web resources and services.